Time;durP1;ratioP1;P1;durP2;ratioP2;P2;SDS_P1;SDS_P2;PMS_P1;PMS_P2;Temp;Humidity;BMP_temperature;BMP_pressure;BME280_temperature;BME280_humidity;BME280_pressure;Samples;Min_cycle;Max_cycle;Signal;HPM_P1;HPM_P2
2022/09/21 15:54:23;;;;;;;;;;;;;;;19.20;36.19;95190.00;5604687;22;2330;-68
2022/09/21 15:57:23;;;;;;;;;;;;;;;19.26;35.79;95198.22;5594189;28;1689;-68
2022/09/21 16:00:17;;;;;;;;;;;;;;;19.30;35.61;95188.81;5579341;28;1643;-68
2022/09/21 16:03:04;;;;;;;;;;;;;;;19.34;35.65;95190.88;5581679;28;1644;-69
2022/09/21 16:05:48;;;;;;;;;;;;;;;19.37;35.49;95195.81;5580347;28;1506;-68
2022/09/21 16:08:33;;;;;;;;;;;;;;;19.40;35.50;95200.72;5588458;28;1682;-68
2022/09/21 16:11:21;;;;;;;;;;;;;;;19.43;35.51;95199.50;5593060;28;1591;-68
2022/09/21 16:17:26;;;;;;;;;;;;;;;19.48;35.42;95196.25;5580893;28;1758;-68
2022/09/21 16:20:21;;;;;;;;;;;;;;;19.50;35.55;95205.69;5591275;28;1535;-69
2022/09/21 16:23:06;;;;;;;;;;;;;;;19.51;35.44;95211.84;5592710;28;1696;-69
2022/09/21 16:25:53;;;;;;;;;;;;;;;19.54;35.52;95211.47;5588483;28;1681;-68
2022/09/21 16:28:39;;;;;;;;;;;;;;;19.55;35.35;95210.44;5590107;28;1597;-68
2022/09/21 16:31:32;;;;;;;;;;;;;;;19.56;35.46;95214.78;5593727;28;1815;-67
2022/09/21 16:34:35;;;;;;;;;;;;;;;19.57;35.49;95211.06;5592875;28;1993;-67
2022/09/21 16:37:24;;;;;;;;;;;;;;;19.59;35.31;95214.38;5586287;28;1674;-67
2022/09/21 16:40:08;;;;;;;;;;;;;;;19.59;35.48;95209.03;5593428;28;1772;-68
2022/09/21 16:42:51;;;;;;;;;;;;;;;19.59;35.46;95209.03;5593012;28;1581;-67
2022/09/21 16:45:35;;;;;;;;;;;;;;;19.61;35.52;95218.47;5592077;28;1715;-67
2022/09/21 16:48:18;;;;;;;;;;;;;;;19.64;35.51;95227.91;5586310;28;1731;-67
2022/09/21 16:51:01;;;;;;;;;;;;;;;19.64;35.34;95223.41;5585683;28;1744;-67
2022/09/21 16:53:44;;;;;;;;;;;;;;;19.65;35.23;95229.56;5575278;28;1955;-68
2022/09/21 16:56:27;;;;;;;;;;;;;;;19.67;35.29;95239.00;5571142;28;1056;-67
2022/09/21 16:59:15;;;;;;;;;;;;;;;19.66;35.25;95232.03;5571040;28;1625;-67
2022/09/21 17:01:59;;;;;;;;;;;;;;;19.67;35.34;95238.19;5562014;28;1335;-70
2022/09/21 17:04:43;;;;;;;;;;;;;;;19.68;35.26;95239.81;5559693;28;1677;-68
2022/09/21 17:07:25;;;;;;;;;;;;;;;19.68;35.13;95239.81;5553596;28;1705;-67
2022/09/21 17:10:11;;;;;;;;;;;;;;;19.70;35.30;95242.28;5554519;28;1633;-67
2022/09/21 17:12:54;;;;;;;;;;;;;;;19.71;35.09;95250.06;5544398;28;1906;-66
2022/09/21 17:15:41;;;;;;;;;;;;;;;19.71;35.28;95250.06;5548420;28;1718;-67
2022/09/21 17:18:26;;;;;;;;;;;;;;;19.71;35.11;95250.06;5553724;28;1500;-69
2022/09/21 17:21:09;;;;;;;;;;;;;;;19.72;35.13;95256.22;5552927;28;1729;-68
2022/09/21 17:23:52;;;;;;;;;;;;;;;19.73;35.11;95252.56;5537643;28;1635;-68
2022/09/21 17:26:35;;;;;;;;;;;;;;;19.73;35.29;95263.22;5551019;28;1732;-68
2022/09/21 17:29:21;;;;;;;;;;;;;;;19.73;35.04;95253.38;5543110;28;1594;-66
2022/09/21 17:32:08;;;;;;;;;;;;;;;19.73;35.12;95269.38;5545512;28;1852;-68
2022/09/21 17:34:55;;;;;;;;;;;;;;;19.74;35.23;95271.00;5542831;28;1910;-67
2022/09/21 17:37:37;;;;;;;;;;;;;;;19.74;35.23;95276.34;5552693;28;1642;-67
2022/09/21 17:40:22;;;;;;;;;;;;;;;19.75;35.13;95278.00;5548424;28;1720;-67
2022/09/21 17:43:13;;;;;;;;;;;;;;;19.75;35.18;95287.81;5548011;28;1421;-67
2022/09/21 17:46:00;;;;;;;;;;;;;;;19.75;35.15;95283.31;5512160;28;12033;-68
2022/09/21 17:48:43;;;;;;;;;;;;;;;19.75;35.01;95288.66;5517014;28;1630;-69
2022/09/21 17:54:28;;;;;;;;;;;;;;;19.76;34.95;95294.81;5505878;28;2003;-68
2022/09/21 17:57:17;;;;;;;;;;;;;;;19.75;35.10;95294.00;5499610;28;1905;-69
2022/09/21 17:59:59;;;;;;;;;;;;;;;;;;5509863;28;1328;-69
2022/09/21 18:02:43;;;;;;;;;;;;;;;19.75;nan;95304.66;5529474;28;1117;-70
2022/09/21 18:05:26;;;;;;;;;;;;;;;;;;5514326;28;1237;-69
2022/09/21 18:08:10;;;;;;;;;;;;;;;19.76;nan;95295.63;5525617;28;1278;-68
2022/09/21 18:10:57;;;;;;;;;;;;;;;19.77;nan;95302.59;5499503;28;1561;-68
2022/09/21 18:13:52;;;;;;;;;;;;;;;19.77;nan;95312.44;5511939;28;1973;-68
2022/09/21 18:16:41;;;;;;;;;;;;;;;19.76;nan;95303.63;5507292;28;1404;-67
2022/09/21 18:19:31;;;;;;;;;;;;;;;19.77;nan;95302.59;5516760;28;1750;-68
2022/09/21 18:22:17;;;;;;;;;;;;;;;19.77;nan;95313.25;5505894;28;1503;-68
2022/09/21 18:25:06;;;;;;;;;;;;;;;19.78;nan;95304.25;5512233;28;1386;-68
2022/09/21 18:27:49;;;;;;;;;;;;;;;;;;5518052;28;1392;-68
2022/09/21 18:30:32;;;;;;;;;;;;;;;19.77;nan;95315.94;5507837;28;1470;-68
2022/09/21 18:33:22;;;;;;;;;;;;;;;19.78;nan;95320.25;5503766;28;1918;-68
2022/09/21 18:36:13;;;;;;;;;;;;;;;19.78;nan;95324.78;5524936;28;1009;-68
2022/09/21 18:39:02;;;;;;;;;;;;;;;19.79;nan;95329.06;5517065;28;1725;-68
2022/09/21 18:41:45;;;;;;;;;;;;;;;;;;5513959;28;1254;-68
2022/09/21 18:44:31;;;;;;;;;;;;;;;19.78;nan;95324.78;5499539;28;1361;-68
2022/09/21 18:47:19;;;;;;;;;;;;;;;19.78;nan;95325.59;5523374;28;1488;-68
2022/09/21 18:50:05;;;;;;;;;;;;;;;19.77;nan;95318.59;5516677;28;1242;-67
2022/09/21 18:52:52;;;;;;;;;;;;;;;19.79;nan;95321.88;5524673;28;1501;-67
2022/09/21 18:55:36;;;;;;;;;;;;;;;19.78;nan;95320.25;5491787;28;1914;-67
2022/09/21 18:58:19;;;;;;;;;;;;;;;19.79;nan;95326.41;5514012;28;1389;-72
2022/09/21 19:01:02;;;;;;;;;;;;;;;;;;5509644;28;1750;-68
2022/09/21 19:03:48;;;;;;;;;;;;;;;19.79;nan;95332.56;5508991;28;1745;-68
2022/09/21 19:06:36;;;;;;;;;;;;;;;19.79;nan;95332.56;5502712;28;1710;-68
2022/09/21 19:09:34;;;;;;;;;;;;;;;19.78;nan;95319.44;5509810;28;1641;-68
2022/09/21 19:12:20;;;;;;;;;;;;;;;19.79;nan;95332.56;5510017;28;1086;-68
2022/09/21 19:15:11;;;;;;;;;;;;;;;19.79;nan;95332.56;5509277;28;1879;-67
2022/09/21 19:18:04;;;;;;;;;;;;;;;19.79;nan;95327.22;5503504;28;1719;-67
2022/09/21 19:20:52;;;;;;;;;;;;;;;19.79;nan;95326.41;5509462;28;1690;-68
2022/09/21 19:23:36;;;;;;;;;;;;;;;;;;5508838;28;1550;-67
2022/09/21 19:26:22;;;;;;;;;;;;;;;19.79;nan;95321.88;5509325;28;1774;-67
2022/09/21 19:29:25;;;;;;;;;;;;;;;19.80;nan;95322.72;5504649;28;1547;-69
2022/09/21 19:32:14;;;;;;;;;;;;;;;19.79;nan;95311.22;5506710;28;1707;-68
2022/09/21 19:34:58;;;;;;;;;;;;;;;19.79;nan;95326.41;5509518;28;1906;-69
2022/09/21 19:37:42;;;;;;;;;;;;;;;19.78;nan;95320.25;5510025;28;1707;-68
2022/09/21 19:40:25;;;;;;;;;;;;;;;;;;5504881;28;1705;-69
2022/09/21 19:43:20;;;;;;;;;;;;;;;19.79;nan;95316.56;5505326;28;1710;-70
2022/09/21 19:46:11;;;;;;;;;;;;;;;19.79;nan;95321.88;5510728;28;1737;-69
2022/09/21 19:49:00;;;;;;;;;;;;;;;19.80;nan;95306.72;5509824;28;1771;-77
2022/09/21 19:51:45;;;;;;;;;;;;;;;19.79;nan;95305.88;5506110;28;1611;-70
2022/09/21 20:00:31;;;;;;;;;;;;;;;19.79;nan;95315.75;5503764;28;1450;-68
2022/09/21 20:03:19;;;;;;;;;;;;;;;19.78;nan;95304.25;5503701;28;1241;-67
2022/09/21 20:06:05;;;;;;;;;;;;;;;19.79;nan;95316.56;5512031;28;1183;-68
2022/09/21 20:08:52;;;;;;;;;;;;;;;19.79;nan;95316.56;5518412;28;1587;-68
2022/09/21 20:11:40;;;;;;;;;;;;;;;19.80;nan;95318.19;5505133;28;1382;-68
2022/09/21 20:14:29;;;;;;;;;;;;;;;19.81;nan;95330.53;5507552;28;1907;-69
2022/09/21 20:17:14;;;;;;;;;;;;;;;19.82;nan;95326.00;5499439;28;1303;-68
2022/09/21 20:20:04;;;;;;;;;;;;;;;20.06;nan;95337.97;5510454;28;1743;-76
2022/09/21 20:22:47;;;;;;;;;;;;;;;20.00;nan;95344.94;5505338;28;1640;-74
2022/09/21 20:25:32;;;;;;;;;;;;;;;19.96;nan;95342.88;5506535;28;1640;-73
2022/09/21 20:28:17;;;;;;;;;;;;;;;19.93;nan;95338.78;5501112;28;1679;-73
2022/09/21 20:31:00;;;;;;;;;;;;;;;19.94;nan;95340.41;5510029;28;1757;-75
2022/09/21 20:33:42;;;;;;;;;;;;;;;19.92;nan;95331.81;5509091;28;1570;-74
2022/09/21 20:36:27;;;;;;;;;;;;;;;19.95;nan;95335.91;5519084;28;1906;-76
2022/09/21 20:39:10;;;;;;;;;;;;;;;19.97;nan;95333.84;5516240;28;1617;-78
2022/09/21 20:41:53;;;;;;;;;;;;;;;19.98;nan;95335.50;5520571;28;1393;-77
2022/09/21 20:44:37;;;;;;;;;;;;;;;20.00;nan;95338.78;5513232;28;1539;-76
2022/09/21 20:47:20;;;;;;;;;;;;;;;20.01;nan;95345.78;5513618;28;1662;-77
2022/09/21 20:50:04;;;;;;;;;;;;;;;20.01;nan;95335.13;5505060;28;1651;-75
2022/09/21 20:52:47;;;;;;;;;;;;;;;20.01;nan;95330.59;5517030;28;1505;-74
2022/09/21 20:55:30;;;;;;;;;;;;;;;20.01;nan;95345.78;5512258;28;1903;-73
2022/09/21 20:58:13;;;;;;;;;;;;;;;20.05;nan;95336.34;5513071;28;1686;-78
2022/09/21 21:01:02;;;;;;;;;;;;;;;20.06;nan;95343.31;5508884;28;1690;-78
2022/09/21 21:03:44;;;;;;;;;;;;;;;20.18;nan;95341.72;5512433;28;1606;-73
2022/09/21 21:06:30;;;;;;;;;;;;;;;20.14;nan;95335.13;5513898;28;1628;-75
2022/09/21 21:09:12;;;;;;;;;;;;;;;20.18;nan;95340.91;5512069;28;1612;-77
2022/09/21 21:11:56;;;;;;;;;;;;;;;20.14;nan;95339.66;5509065;28;1694;-76
2022/09/21 21:14:39;;;;;;;;;;;;;;;20.13;nan;95333.50;5507033;28;1887;-80
2022/09/21 21:17:23;;;;;;;;;;;;;;;20.14;nan;95340.47;5513491;28;1587;-78
2022/09/21 21:20:07;;;;;;;;;;;;;;;20.13;nan;95338.84;5512640;28;1651;-77
2022/09/21 21:22:51;;;;;;;;;;;;;;;20.14;nan;95328.97;5512546;28;1635;-79
2022/09/21 21:25:33;;;;;;;;;;;;;;;20.15;nan;95333.31;5502355;28;1628;-78
2022/09/21 21:28:16;;;;;;;;;;;;;;;20.15;nan;95331.47;5511743;28;1645;-79
2022/09/21 21:30:59;;;;;;;;;;;;;;;20.15;nan;95342.13;5512340;28;1773;-79
2022/09/21 21:33:44;;;;;;;;;;;;;;;20.15;nan;95336.78;5511113;28;1649;-74
2022/09/21 21:36:26;;;;;;;;;;;;;;;20.15;nan;95331.47;5502046;28;2235;-74
2022/09/21 21:39:09;;;;;;;;;;;;;;;20.15;nan;95326.13;5510491;28;1495;-72
2022/09/21 21:41:52;;;;;;;;;;;;;;;20.16;nan;95327.75;5512036;28;1658;-78
2022/09/21 21:44:36;;;;;;;;;;;;;;;20.25;nan;95326.53;5514446;28;1653;-81
2022/09/21 21:47:19;;;;;;;;;;;;;;;20.29;nan;95333.13;5504626;28;1469;-81
2022/09/21 21:50:22;;;;;;;;;;;;;;;20.32;nan;95332.72;5515402;28;1551;-82
2022/09/21 21:53:04;;;;;;;;;;;;;;;20.34;nan;95336.03;5513399;28;1674;-81
2022/09/21 21:55:47;;;;;;;;;;;;;;;;;;5522188;28;1993;-81
2022/09/21 21:58:30;;;;;;;;;;;;;;;20.36;nan;95327.81;5505869;28;1290;-80
2022/09/21 22:01:13;;;;;;;;;;;;;;;20.37;nan;95334.00;5514750;28;1615;-80
2022/09/21 22:03:57;;;;;;;;;;;;;;;20.37;nan;95344.66;5515312;28;1691;-77
2022/09/21 22:06:42;;;;;;;;;;;;;;;20.34;nan;95330.69;5511071;28;1702;-71
2022/09/21 22:09:24;;;;;;;;;;;;;;;;;;5505579;28;1605;-70
2022/09/21 22:12:10;;;;;;;;;;;;;;;20.28;nan;95336.00;5507475;28;1734;-70
2022/09/21 22:14:53;;;;;;;;;;;;;;;20.27;nan;95329.84;5499901;28;1975;-70
2022/09/21 22:17:36;;;;;;;;;;;;;;;20.25;nan;95326.53;5510692;28;1586;-71
2022/09/21 22:20:19;;;;;;;;;;;;;;;20.27;nan;95319.16;5511025;28;1511;-70
2022/09/21 22:23:03;;;;;;;;;;;;;;;20.25;nan;95310.53;5505387;28;1631;-69
2022/09/21 22:25:46;;;;;;;;;;;;;;;20.24;nan;95314.22;5508617;28;1632;-70
2022/09/21 22:28:29;;;;;;;;;;;;;;;20.27;nan;95307.69;5508981;28;1537;-77
2022/09/21 22:31:12;;;;;;;;;;;;;;;20.31;nan;95293.72;5515366;28;1494;-71
2022/09/21 22:33:56;;;;;;;;;;;;;;;20.31;nan;95314.25;5501356;28;1485;-70
2022/09/21 22:36:39;;;;;;;;;;;;;;;20.30;nan;95313.44;5509637;28;1995;-69
2022/09/21 22:39:22;;;;;;;;;;;;;;;;;;5508907;28;1710;-70
2022/09/21 22:42:06;;;;;;;;;;;;;;;20.28;nan;95310.13;5510039;28;1836;-70
2022/09/21 22:44:49;;;;;;;;;;;;;;;20.29;nan;95326.97;5499997;28;1519;-72
2022/09/21 22:47:32;;;;;;;;;;;;;;;20.28;nan;95331.47;5509023;28;1669;-71
2022/09/21 22:50:20;;;;;;;;;;;;;;;20.29;nan;95332.31;5510244;28;1718;-71
2022/09/21 22:53:09;;;;;;;;;;;;;;;20.29;nan;95333.13;5509188;28;1575;-72
2022/09/21 22:56:00;;;;;;;;;;;;;;;20.29;nan;95333.13;5501729;28;1906;-76
2022/09/21 22:58:45;;;;;;;;;;;;;;;20.28;nan;95330.66;5510455;28;1629;-76
2022/09/21 23:01:28;;;;;;;;;;;;;;;;;;5508485;28;1707;-76
2022/09/21 23:04:12;;;;;;;;;;;;;;;20.29;nan;95338.47;5506451;28;1474;-73
2022/09/21 23:06:55;;;;;;;;;;;;;;;20.34;nan;95330.69;5503996;28;1734;-76
2022/09/21 23:09:38;;;;;;;;;;;;;;;20.39;nan;95331.94;5508333;28;1604;-75
2022/09/21 23:12:20;;;;;;;;;;;;;;;20.38;nan;95335.66;5509956;28;1804;-76
2022/09/21 23:15:05;;;;;;;;;;;;;;;20.38;nan;95330.31;5510519;28;1755;-73
2022/09/21 23:17:48;;;;;;;;;;;;;;;20.39;nan;95326.63;5504021;28;1914;-74
2022/09/21 23:20:31;;;;;;;;;;;;;;;20.40;nan;95334.41;5505771;28;1563;-74
2022/09/21 23:23:13;;;;;;;;;;;;;;;20.41;nan;95329.91;5507102;28;1651;-74
2022/09/21 23:26:03;;;;;;;;;;;;;;;20.42;nan;95331.53;5508674;28;1762;-75
2022/09/21 23:28:50;;;;;;;;;;;;;;;20.43;nan;95333.19;5507589;28;1588;-74
2022/09/21 23:31:35;;;;;;;;;;;;;;;20.42;nan;95327.03;5504093;28;1739;-74
2022/09/21 23:34:19;;;;;;;;;;;;;;;20.42;nan;95327.03;5509255;28;1505;-74
2022/09/21 23:37:02;;;;;;;;;;;;;;;20.44;nan;95326.84;5508462;28;1919;-75
2022/09/21 23:39:45;;;;;;;;;;;;;;;20.46;nan;95327.44;5494153;28;1634;-73
2022/09/21 23:42:28;;;;;;;;;;;;;;;20.47;nan;95308.56;5500842;28;1471;-74
2022/09/21 23:45:10;;;;;;;;;;;;;;;;;;5508397;28;1519;-73
2022/09/21 23:47:54;;;;;;;;;;;;;;;20.44;nan;95324.97;5508812;28;1574;-74
2022/09/21 23:50:37;;;;;;;;;;;;;;;20.45;nan;95320.47;5509707;28;1787;-73
2022/09/21 23:53:20;;;;;;;;;;;;;;;;;;5499076;28;1787;-76
2022/09/21 23:56:03;;;;;;;;;;;;;;;20.46;nan;95306.06;5509262;28;1910;-74
2022/09/21 23:58:47;;;;;;;;;;;;;;;20.44;nan;95314.31;5508843;28;1620;-74
